createdAt,value
2019-05-08T00:00:39.572Z,99.99
2019-05-08T00:01:39.601Z,99.99
2019-05-08T00:02:41.691Z,99.99
2019-05-08T00:03:39.674Z,99.99
2019-05-08T00:04:39.738Z,99.99
2019-05-08T00:05:41.985Z,99.99
2019-05-08T00:06:42.268Z,99.99
2019-05-08T00:07:39.893Z,99.99
2019-05-08T00:08:39.914Z,99.99
2019-05-08T00:09:39.944Z,99.99
2019-05-08T00:10:39.987Z,99.99
2019-05-08T00:11:40.021Z,99.99
2019-05-08T00:12:40.110Z,99.99
2019-05-08T00:13:42.322Z,99.99
2019-05-08T00:14:42.446Z,99.99
2019-05-08T00:15:40.199Z,99.99
2019-05-08T00:16:42.396Z,99.99
2019-05-08T00:17:42.614Z,99.99
2019-05-08T00:18:40.336Z,99.99
2019-05-08T00:19:42.651Z,99.99
2019-05-08T00:20:42.710Z,99.99
2019-05-08T00:21:42.574Z,99.99
2019-05-08T00:22:42.572Z,99.99
2019-05-08T00:23:42.526Z,99.99
2019-05-08T00:24:42.932Z,99.99
2019-05-08T00:25:42.237Z,99.99
2019-05-08T00:26:42.233Z,99.99
2019-05-08T00:27:42.253Z,99.99
2019-05-08T00:28:42.613Z,99.99
2019-05-08T00:29:42.490Z,99.99
2019-05-08T00:30:42.387Z,99.99
2019-05-08T00:31:42.155Z,99.99
2019-05-08T00:32:42.096Z,99.99
2019-05-08T00:33:41.911Z,99.99
2019-05-08T00:34:42.906Z,99.99
2019-05-08T00:35:42.123Z,99.99
2019-05-08T00:36:42.815Z,99.99
2019-05-08T00:37:43.220Z,99.99
2019-05-08T00:38:42.080Z,99.99
2019-05-08T00:39:42.080Z,99.99
2019-05-08T00:40:42.048Z,99.99
2019-05-08T00:41:42.875Z,99.99
2019-05-08T00:42:43.191Z,99.99
2019-05-08T00:43:41.973Z,99.99
2019-05-08T00:44:42.442Z,99.99
2019-05-08T00:45:42.032Z,99.99
2019-05-08T00:46:42.741Z,99.99
2019-05-08T00:47:42.931Z,99.99
2019-05-08T00:48:42.090Z,99.99
2019-05-08T00:49:42.349Z,99.99
2019-05-08T00:50:42.267Z,99.99
2019-05-08T00:51:42.468Z,99.99
2019-05-08T00:52:42.143Z,99.99
2019-05-08T00:53:42.638Z,99.99
2019-05-08T00:54:43.089Z,99.99
2019-05-08T00:55:41.976Z,99.99
2019-05-08T00:56:42.158Z,99.99
2019-05-08T00:57:43.679Z,99.99
2019-05-08T00:58:42.099Z,99.99
2019-05-08T00:59:42.493Z,99.99
2019-05-08T01:00:42.567Z,99.99
2019-05-08T01:01:43.106Z,99.99
2019-05-08T01:02:42.262Z,99.99
2019-05-08T01:03:42.334Z,99.99
2019-05-08T01:04:42.553Z,99.99
2019-05-08T01:05:42.938Z,99.99
2019-05-08T01:06:43.025Z,99.99
2019-05-08T01:07:43.027Z,99.99
2019-05-08T01:08:43.047Z,99.99
2019-05-08T01:09:42.606Z,99.99
2019-05-08T01:10:42.769Z,99.99
2019-05-08T01:11:42.690Z,99.99
2019-05-08T01:12:43.059Z,99.99
2019-05-08T01:13:42.786Z,99.99
2019-05-08T01:14:45.626Z,99.99
2019-05-08T01:15:42.837Z,99.99
2019-05-08T01:16:42.840Z,99.99
2019-05-08T01:17:43.182Z,99.99
2019-05-08T01:18:43.111Z,99.99
2019-05-08T01:19:42.992Z,99.99
2019-05-08T01:20:43.063Z,99.99
2019-05-08T01:21:43.076Z,99.99
2019-05-08T01:22:43.115Z,99.99
2019-05-08T01:23:43.179Z,99.99
2019-05-08T01:24:43.248Z,99.99
2019-05-08T01:25:43.453Z,99.99
2019-05-08T01:26:43.301Z,99.99
2019-05-08T01:27:51.985Z,99.99
2019-05-08T01:28:43.402Z,99.99
2019-05-08T01:29:43.410Z,99.99
2019-05-08T01:30:43.471Z,99.99
2019-05-08T01:31:43.533Z,99.99
2019-05-08T01:32:43.566Z,99.99
2019-05-08T01:33:43.583Z,99.99
2019-05-08T01:34:43.659Z,99.99
2019-05-08T01:35:43.688Z,99.99
2019-05-08T01:36:43.727Z,99.99
2019-05-08T01:37:44.147Z,99.99
2019-05-08T01:38:43.841Z,99.99
2019-05-08T01:39:43.917Z,99.99
2019-05-08T01:40:43.909Z,99.99
2019-05-08T01:41:43.974Z,99.99
2019-05-08T01:42:44.009Z,99.99
2019-05-08T01:43:44.110Z,99.99
2019-05-08T01:44:44.090Z,99.99
2019-05-08T01:45:44.135Z,99.99
2019-05-08T01:46:44.172Z,99.99
2019-05-08T01:47:44.204Z,99.99
2019-05-08T01:48:44.295Z,99.99
2019-05-08T01:49:44.308Z,99.99
2019-05-08T01:50:44.326Z,99.99
2019-05-08T01:51:44.399Z,99.99
2019-05-08T01:52:44.441Z,99.99
2019-05-08T01:53:44.519Z,99.99
2019-05-08T01:54:44.515Z,99.99
2019-05-08T01:55:44.572Z,99.99
2019-05-08T01:56:44.603Z,99.99
2019-05-08T01:57:44.666Z,99.99
2019-05-08T01:58:44.743Z,99.99
2019-05-08T01:59:44.785Z,99.99
2019-05-08T02:00:44.767Z,99.99
2019-05-08T02:01:44.823Z,99.99
2019-05-08T02:02:44.858Z,99.99
2019-05-08T02:03:44.901Z,99.99
2019-05-08T02:04:44.937Z,99.99
2019-05-08T02:05:44.994Z,99.99
2019-05-08T02:06:45.044Z,99.99
2019-05-08T02:07:45.151Z,99.99
2019-05-08T02:08:45.147Z,99.99
2019-05-08T02:09:45.185Z,99.99
2019-05-08T02:10:45.231Z,99.99
2019-05-08T02:11:45.261Z,99.99
2019-05-08T02:12:45.307Z,99.99
2019-05-08T02:13:45.346Z,99.99
2019-05-08T02:14:45.402Z,99.99
2019-05-08T02:15:45.426Z,99.99
2019-05-08T02:16:45.509Z,99.99
2019-05-08T02:17:45.577Z,99.99
2019-05-08T02:18:45.565Z,99.99
2019-05-08T02:19:45.662Z,99.99
2019-05-08T02:20:45.659Z,99.99
2019-05-08T02:21:45.716Z,99.99
2019-05-08T02:22:45.794Z,99.99
2019-05-08T02:23:45.785Z,99.99
2019-05-08T02:24:45.846Z,99.99
2019-05-08T02:25:45.880Z,99.99
2019-05-08T02:26:45.965Z,99.99
2019-05-08T02:27:45.971Z,99.99
2019-05-08T02:28:46.013Z,99.99
2019-05-08T02:29:46.076Z,99.99
2019-05-08T02:30:46.114Z,99.99
2019-05-08T02:31:46.141Z,99.99
2019-05-08T02:32:46.178Z,99.99
2019-05-08T02:33:46.230Z,99.99
2019-05-08T02:34:46.288Z,99.99
2019-05-08T02:35:46.312Z,99.99
2019-05-08T02:36:57.792Z,99.99
2019-05-08T02:37:46.450Z,99.99
2019-05-08T02:38:46.435Z,99.99
2019-05-08T02:39:46.493Z,99.99
2019-05-08T02:40:46.525Z,99.99
2019-05-08T02:41:46.613Z,99.99
2019-05-08T02:42:46.608Z,99.99
2019-05-08T02:43:46.648Z,99.99
2019-05-08T02:44:46.698Z,99.99
2019-05-08T02:45:49.598Z,99.99
2019-05-08T02:46:46.843Z,99.99
2019-05-08T02:47:46.861Z,99.99
2019-05-08T02:48:46.892Z,99.99
2019-05-08T02:49:46.940Z,99.99
2019-05-08T02:50:46.974Z,99.99
2019-05-08T02:51:47.018Z,99.99
2019-05-08T02:52:47.063Z,99.99
2019-05-08T02:53:50.089Z,99.99
2019-05-08T02:54:50.809Z,99.99
2019-05-08T02:55:47.203Z,99.99
2019-05-08T02:56:50.480Z,99.99
2019-05-08T02:57:50.528Z,99.99
2019-05-08T02:59:01.104Z,99.99
2019-05-08T02:59:50.188Z,99.99
2019-05-08T03:00:47.410Z,99.99
2019-05-08T03:01:50.233Z,99.99
2019-05-08T03:02:51.088Z,99.99
2019-05-08T03:03:50.627Z,99.99
2019-05-08T03:04:47.587Z,99.99
2019-05-08T03:05:50.351Z,99.99
2019-05-08T03:06:51.127Z,99.99
2019-05-08T03:07:50.595Z,99.99
2019-05-08T03:08:50.459Z,99.99
2019-05-08T03:09:47.825Z,99.99
2019-05-08T03:10:50.869Z,99.99
2019-05-08T03:11:50.709Z,99.99
2019-05-08T03:12:50.975Z,99.99
2019-05-08T03:13:50.403Z,99.99
2019-05-08T03:14:49.986Z,99.99
2019-05-08T03:15:50.618Z,99.99
2019-05-08T03:16:49.924Z,99.99
2019-05-08T03:17:50.523Z,99.99
2019-05-08T03:18:50.473Z,99.99
2019-05-08T03:19:51.064Z,99.99
2019-05-08T03:20:51.184Z,99.99
2019-05-08T03:21:50.462Z,99.99
2019-05-08T03:22:51.027Z,99.99
2019-05-08T03:23:51.628Z,99.99
2019-05-08T03:24:54.734Z,99.99
2019-05-08T03:25:50.552Z,99.99
2019-05-08T03:26:50.390Z,99.99
2019-05-08T03:27:50.945Z,99.99
2019-05-08T03:29:06.997Z,99.99
2019-05-08T03:29:50.349Z,99.99
2019-05-08T03:30:53.371Z,99.99
2019-05-08T03:31:53.600Z,99.99
2019-05-08T03:32:53.375Z,99.99
2019-05-08T03:33:53.655Z,99.99
2019-05-08T03:34:54.241Z,99.99
2019-05-08T03:35:53.926Z,99.99
2019-05-08T03:36:53.525Z,99.99
2019-05-08T03:37:50.396Z,99.99
2019-05-08T03:38:51.848Z,99.99
2019-05-08T03:39:50.914Z,99.99
2019-05-08T03:40:51.117Z,99.99
2019-05-08T03:41:51.247Z,99.99
2019-05-08T03:42:51.193Z,99.99
2019-05-08T03:43:50.048Z,99.99
2019-05-08T03:44:50.576Z,99.99
2019-05-08T03:45:51.068Z,99.99
2019-05-08T03:46:50.305Z,99.99
2019-05-08T03:47:51.465Z,99.99
2019-05-08T03:48:51.634Z,99.99
2019-05-08T03:49:50.023Z,99.99
2019-05-08T03:50:50.685Z,99.99
2019-05-08T03:51:50.536Z,99.99
2019-05-08T03:52:51.305Z,99.99
2019-05-08T03:53:50.368Z,99.99
2019-05-08T03:54:50.709Z,99.99
2019-05-08T03:55:50.526Z,99.99
2019-05-08T03:56:50.937Z,99.99
2019-05-08T03:57:51.925Z,99.99
2019-05-08T03:58:50.757Z,99.99
2019-05-08T03:59:51.478Z,99.99
2019-05-08T04:00:50.470Z,99.99
2019-05-08T04:01:50.389Z,99.99
2019-05-08T04:02:50.851Z,99.99
2019-05-08T04:03:50.544Z,99.99
2019-05-08T04:04:51.035Z,99.99
2019-05-08T04:05:50.980Z,99.99
2019-05-08T04:06:51.240Z,99.99
2019-05-08T04:07:51.422Z,99.99
2019-05-08T04:08:51.244Z,99.99
2019-05-08T04:09:50.610Z,99.99
2019-05-08T04:10:50.912Z,99.99
2019-05-08T04:11:51.412Z,99.99
2019-05-08T04:12:50.615Z,99.99
2019-05-08T04:13:50.615Z,99.99
2019-05-08T04:14:50.932Z,99.99
2019-05-08T04:15:50.777Z,99.99
2019-05-08T04:16:51.653Z,99.99
2019-05-08T04:17:50.829Z,99.99
2019-05-08T04:18:51.117Z,99.99
2019-05-08T04:19:51.457Z,99.99
2019-05-08T04:20:50.948Z,99.99
2019-05-08T04:21:51.059Z,99.99
2019-05-08T04:22:51.145Z,99.99
2019-05-08T04:23:51.076Z,99.99
2019-05-08T04:24:51.100Z,99.99
2019-05-08T04:25:51.118Z,99.99
2019-05-08T04:26:51.223Z,99.99
2019-05-08T04:27:51.331Z,99.99
2019-05-08T04:28:51.252Z,99.99
2019-05-08T04:29:57.130Z,99.99
2019-05-08T04:30:51.422Z,99.99
2019-05-08T04:31:51.483Z,99.99
2019-05-08T04:32:51.638Z,99.99
2019-05-08T04:33:51.672Z,99.99
2019-05-08T04:34:51.538Z,99.99
2019-05-08T04:35:51.617Z,99.99
2019-05-08T04:36:51.721Z,99.99
2019-05-08T04:37:51.695Z,99.99
2019-05-08T04:38:51.731Z,99.99
2019-05-08T04:39:51.759Z,99.99
2019-05-08T04:40:51.803Z,99.99
2019-05-08T04:41:51.879Z,99.99
2019-05-08T04:42:51.888Z,99.99
2019-05-08T04:43:52.073Z,99.99
2019-05-08T04:44:51.993Z,99.99
2019-05-08T04:45:52.075Z,99.99
2019-05-08T04:46:52.048Z,99.99
2019-05-08T04:47:52.130Z,99.99
2019-05-08T04:48:52.131Z,99.99
2019-05-08T04:49:52.191Z,99.99
2019-05-08T04:50:52.227Z,99.99
2019-05-08T04:51:52.482Z,99.99
2019-05-08T04:52:52.308Z,99.99
2019-05-08T04:53:52.370Z,99.99
2019-05-08T04:54:52.411Z,99.99
2019-05-08T04:55:52.416Z,99.99
2019-05-08T04:56:52.482Z,99.99
2019-05-08T04:57:52.536Z,99.99
2019-05-08T04:58:52.574Z,99.99
2019-05-08T05:00:07.496Z,99.99
2019-05-08T05:00:52.674Z,99.99
2019-05-08T05:01:52.685Z,99.99
2019-05-08T05:02:52.755Z,99.99
2019-05-08T05:03:52.791Z,99.99
2019-05-08T05:04:52.854Z,99.99
2019-05-08T05:05:52.862Z,99.99
2019-05-08T05:06:52.917Z,99.99
2019-05-08T05:07:52.982Z,99.99
2019-05-08T05:08:53.005Z,99.99
2019-05-08T05:09:53.074Z,99.99
2019-05-08T05:10:53.085Z,99.99
2019-05-08T05:11:53.145Z,99.99
2019-05-08T05:12:54.987Z,99.99
2019-05-08T05:13:53.244Z,99.99
2019-05-08T05:14:53.281Z,99.99
2019-05-08T05:15:53.364Z,99.99
2019-05-08T05:16:53.400Z,99.99
2019-05-08T05:17:53.436Z,99.99
2019-05-08T05:18:53.452Z,99.99
2019-05-08T05:19:53.494Z,99.99
2019-05-08T05:20:53.524Z,99.99
2019-05-08T05:21:53.593Z,99.99
2019-05-08T05:22:53.619Z,99.99
2019-05-08T05:23:53.673Z,99.99
2019-05-08T05:24:53.706Z,99.99
2019-05-08T05:25:53.742Z,99.99
2019-05-08T05:26:53.801Z,99.99
2019-05-08T05:27:53.889Z,99.99
2019-05-08T05:28:53.885Z,99.99
2019-05-08T05:29:53.927Z,99.99
2019-05-08T05:30:53.983Z,99.99
2019-05-08T05:31:54.027Z,99.99
2019-05-08T05:32:54.078Z,99.99
2019-05-08T05:33:54.088Z,99.99
2019-05-08T05:34:54.174Z,99.99
2019-05-08T05:35:54.171Z,99.99
2019-05-08T05:36:54.231Z,99.99
2019-05-08T05:37:54.269Z,99.99
2019-05-08T05:38:54.311Z,99.99
2019-05-08T05:39:54.364Z,99.99
2019-05-08T05:40:54.406Z,99.99
2019-05-08T05:41:54.462Z,99.99
2019-05-08T05:42:54.541Z,99.99
2019-05-08T05:43:54.551Z,99.99
2019-05-08T05:44:54.582Z,99.99
2019-05-08T05:45:54.619Z,99.99
2019-05-08T05:46:54.672Z,99.99
2019-05-08T05:47:54.711Z,99.99
2019-05-08T05:48:54.760Z,99.99
2019-05-08T05:49:54.792Z,99.99
2019-05-08T05:50:54.834Z,99.99
2019-05-08T05:51:54.898Z,99.99
2019-05-08T05:52:54.927Z,99.99
2019-05-08T05:53:54.981Z,99.99
2019-05-08T05:54:55.014Z,99.99
2019-05-08T05:55:55.088Z,99.99
2019-05-08T05:56:55.108Z,99.99
2019-05-08T05:57:55.138Z,99.99
2019-05-08T05:58:55.182Z,99.99
2019-05-08T05:59:55.248Z,99.99
2019-05-08T06:00:55.272Z,99.99
2019-05-08T06:01:55.318Z,99.99
2019-05-08T06:02:55.346Z,99.99
2019-05-08T06:03:55.383Z,99.99
2019-05-08T06:04:55.443Z,99.99
2019-05-08T06:05:55.507Z,99.99
2019-05-08T06:06:55.561Z,99.99
2019-05-08T06:07:55.600Z,99.99
2019-05-08T06:08:55.631Z,99.99
2019-05-08T06:09:55.718Z,99.99
2019-05-08T06:10:55.723Z,99.99
2019-05-08T06:11:55.767Z,99.99
2019-05-08T06:12:55.797Z,99.99
2019-05-08T06:13:55.845Z,99.99
2019-05-08T06:14:55.921Z,99.99
2019-05-08T06:15:55.916Z,99.99
2019-05-08T06:16:56.014Z,99.99
2019-05-08T06:17:56.018Z,99.99
2019-05-08T06:18:56.126Z,99.99
2019-05-08T06:19:56.087Z,99.99
2019-05-08T06:20:56.123Z,99.99
2019-05-08T06:21:56.163Z,99.99
2019-05-08T06:22:56.273Z,99.99
2019-05-08T06:23:56.259Z,99.99
2019-05-08T06:24:56.319Z,99.99
2019-05-08T06:25:56.352Z,99.99
2019-05-08T06:26:56.382Z,99.99
2019-05-08T06:27:56.431Z,99.99
2019-05-08T06:28:56.512Z,99.99
2019-05-08T06:29:56.547Z,99.99
2019-05-08T06:30:57.817Z,99.99
2019-05-08T06:31:56.598Z,99.99
2019-05-08T06:32:56.649Z,99.99
2019-05-08T06:33:56.706Z,99.99
2019-05-08T06:34:56.742Z,99.99
2019-05-08T06:35:56.776Z,99.99
2019-05-08T06:36:56.817Z,99.99
2019-05-08T06:37:59.080Z,99.99
2019-05-08T06:38:59.020Z,99.99
2019-05-08T06:39:59.239Z,99.99
2019-05-08T06:40:57.007Z,99.99
2019-05-08T06:41:57.051Z,99.99
2019-05-08T06:42:59.809Z,99.99
2019-05-08T06:43:57.142Z,99.99
2019-05-08T06:44:57.203Z,99.99
2019-05-08T06:45:59.093Z,99.99
2019-05-08T06:46:57.272Z,99.99
2019-05-08T06:47:59.751Z,99.99
2019-05-08T06:48:57.345Z,99.99
2019-05-08T06:50:01.406Z,99.99
2019-05-08T06:50:59.458Z,99.99
2019-05-08T06:51:57.474Z,99.99
2019-05-08T06:52:59.282Z,99.99
2019-05-08T06:53:59.541Z,99.99
2019-05-08T06:54:59.087Z,99.99
2019-05-08T06:55:59.346Z,99.99
2019-05-08T06:56:58.964Z,99.99
2019-05-08T06:57:59.693Z,99.99
2019-05-08T06:58:59.878Z,99.99
2019-05-08T06:59:57.826Z,99.99
2019-05-08T07:01:06.540Z,99.99
2019-05-08T07:01:59.414Z,99.99
2019-05-08T07:02:59.238Z,99.99
2019-05-08T07:04:02.667Z,99.99
2019-05-08T07:04:59.470Z,99.99
2019-05-08T07:05:59.764Z,99.99
2019-05-08T07:07:00.117Z,99.99
2019-05-08T07:08:00.239Z,99.99
2019-05-08T07:09:00.097Z,99.99
2019-05-08T07:09:59.886Z,99.99
2019-05-08T07:10:59.932Z,99.99
2019-05-08T07:12:00.035Z,99.99
2019-05-08T07:13:00.199Z,99.99
2019-05-08T07:14:00.200Z,99.99
2019-05-08T07:14:58.986Z,99.99
2019-05-08T07:15:59.905Z,99.99
2019-05-08T07:17:00.083Z,99.99
2019-05-08T07:17:59.226Z,99.99
2019-05-08T07:18:59.943Z,99.99
2019-05-08T07:20:00.188Z,99.99
2019-05-08T07:20:59.301Z,99.99
2019-05-08T07:22:00.376Z,99.99
2019-05-08T07:22:59.075Z,99.99
2019-05-08T07:23:59.471Z,99.99
2019-05-08T07:25:00.152Z,99.99
2019-05-08T07:26:00.102Z,99.10
2019-05-08T07:26:59.562Z,98.53
2019-05-08T07:27:59.325Z,98.10
2019-05-08T07:29:00.056Z,98.48
2019-05-08T07:29:59.119Z,97.71
2019-05-08T07:30:59.635Z,98.19
2019-05-08T07:32:00.251Z,97.47
2019-05-08T07:33:00.020Z,97.86
2019-05-08T07:34:02.662Z,97.66
2019-05-08T07:34:59.442Z,97.62
2019-05-08T07:35:59.776Z,97.19
2019-05-08T07:37:00.624Z,97.47
2019-05-08T07:37:59.459Z,97.47
2019-05-08T07:39:00.377Z,97.76
2019-05-08T07:39:59.542Z,97.38
2019-05-08T07:40:59.743Z,97.28
2019-05-08T07:41:59.984Z,96.61
2019-05-08T07:42:59.820Z,96.80
2019-05-08T07:44:00.257Z,96.42
2019-05-08T07:44:59.826Z,95.55
2019-05-08T07:45:59.875Z,94.40
2019-05-08T07:47:00.234Z,93.44
2019-05-08T07:47:59.898Z,93.15
2019-05-08T07:49:00.028Z,93.25
2019-05-08T07:50:00.273Z,92.57
2019-05-08T07:51:00.025Z,92.00
2019-05-08T07:52:00.253Z,91.13
2019-05-08T07:53:08.160Z,90.56
2019-05-08T07:54:00.708Z,89.40
2019-05-08T07:55:03.573Z,89.40
2019-05-08T07:56:00.232Z,88.45
2019-05-08T07:57:00.310Z,88.35
2019-05-08T07:58:00.319Z,87.77
2019-05-08T07:59:00.340Z,87.68
2019-05-08T08:00:00.407Z,87.39
2019-05-08T08:01:00.471Z,87.01
2019-05-08T08:02:00.730Z,86.05
2019-05-08T08:03:00.527Z,85.85
2019-05-08T08:04:00.585Z,85.95
2019-05-08T08:05:00.637Z,85.57
2019-05-08T08:06:00.666Z,85.28
2019-05-08T08:07:00.685Z,84.80
2019-05-08T08:08:03.468Z,84.85
2019-05-08T08:09:00.781Z,84.41
2019-05-08T08:10:00.823Z,84.18
2019-05-08T08:11:00.914Z,83.54
2019-05-08T08:12:00.905Z,82.87
2019-05-08T08:13:01.001Z,82.87
2019-05-08T08:14:00.995Z,83.12
2019-05-08T08:15:01.048Z,82.84
2019-05-08T08:16:01.107Z,83.03
2019-05-08T08:17:01.155Z,83.51
2019-05-08T08:18:01.182Z,83.60
2019-05-08T08:19:01.183Z,83.89
2019-05-08T08:20:01.267Z,84.08
2019-05-08T08:21:01.309Z,85.14
2019-05-08T08:22:01.349Z,86.38
2019-05-08T08:23:01.380Z,86.19
2019-05-08T08:24:03.138Z,92.33
2019-05-08T08:25:01.462Z,91.76
2019-05-08T08:26:02.304Z,92.24
2019-05-08T08:27:01.563Z,92.91
2019-05-08T08:28:01.590Z,93.49
2019-05-08T08:29:01.633Z,94.07
2019-05-08T08:30:01.676Z,94.45
2019-05-08T08:31:01.736Z,94.64
2019-05-08T08:32:04.398Z,95.50
2019-05-08T08:33:01.793Z,94.93
2019-05-08T08:34:01.859Z,95.70
2019-05-08T08:35:01.885Z,95.89
2019-05-08T08:36:01.941Z,96.47
2019-05-08T08:37:02.030Z,95.79
2019-05-08T08:38:02.000Z,96.27
2019-05-08T08:39:02.119Z,96.66
2019-05-08T08:40:02.158Z,96.47
2019-05-08T08:41:02.128Z,96.66
2019-05-08T08:42:02.773Z,96.37
2019-05-08T08:43:02.224Z,96.56
2019-05-08T08:44:02.295Z,99.63
2019-05-08T08:45:02.344Z,99.99
2019-05-08T08:46:02.339Z,99.99
2019-05-08T08:47:02.409Z,99.99
2019-05-08T08:48:02.448Z,99.99
2019-05-08T08:49:02.502Z,99.99
2019-05-08T08:50:02.552Z,99.99
2019-05-08T08:51:02.574Z,99.99
2019-05-08T08:52:15.124Z,99.99
2019-05-08T08:53:02.649Z,99.99
2019-05-08T08:54:02.749Z,99.99
2019-05-08T08:55:02.744Z,99.99
2019-05-08T08:56:02.768Z,99.99
2019-05-08T08:57:06.287Z,99.99
2019-05-08T08:58:02.877Z,99.99
2019-05-08T08:59:02.924Z,99.99
2019-05-08T09:00:02.948Z,99.99
2019-05-08T09:01:03.014Z,99.99
2019-05-08T09:02:15.920Z,99.99
2019-05-08T09:03:03.088Z,99.99
2019-05-08T09:04:03.113Z,99.99
2019-05-08T09:05:03.210Z,99.99
2019-05-08T09:06:03.231Z,99.99
2019-05-08T09:07:03.286Z,99.99
2019-05-08T09:08:03.327Z,99.99
2019-05-08T09:09:03.352Z,99.99
2019-05-08T09:10:03.392Z,99.99
2019-05-08T09:11:03.424Z,99.99
2019-05-08T09:12:03.492Z,99.99
2019-05-08T09:13:03.558Z,99.99
2019-05-08T09:14:04.022Z,99.54
2019-05-08T09:15:03.878Z,99.99
2019-05-08T09:16:03.643Z,99.34
2019-05-08T09:17:03.702Z,99.44
2019-05-08T09:18:03.763Z,99.99
2019-05-08T09:19:03.840Z,99.99
2019-05-08T09:20:04.410Z,99.99
2019-05-08T09:21:03.851Z,99.99
2019-05-08T09:22:04.010Z,99.99
2019-05-08T09:23:03.940Z,99.99
2019-05-08T09:24:03.968Z,99.99
2019-05-08T09:25:04.023Z,99.99
2019-05-08T09:26:04.082Z,99.99
2019-05-08T09:27:04.136Z,99.99
2019-05-08T09:28:04.142Z,99.99
2019-05-08T09:29:04.184Z,99.99
2019-05-08T09:30:04.259Z,99.99
2019-05-08T09:31:04.286Z,99.99
2019-05-08T09:32:04.334Z,99.99
2019-05-08T09:33:04.375Z,99.99
2019-05-08T09:34:04.423Z,99.99
2019-05-08T09:35:04.438Z,99.99
2019-05-08T09:36:04.492Z,99.99
2019-05-08T09:37:04.550Z,99.99
2019-05-08T09:38:04.580Z,99.99
2019-05-08T09:39:04.645Z,99.99
2019-05-08T09:40:04.688Z,99.99
2019-05-08T09:41:04.729Z,99.99
2019-05-08T09:42:05.258Z,99.99
2019-05-08T09:43:04.792Z,99.99
2019-05-08T09:44:04.859Z,99.99
2019-05-08T09:45:04.872Z,99.99
2019-05-08T09:46:04.976Z,99.99
2019-05-08T09:47:04.970Z,99.99
2019-05-08T09:48:05.040Z,99.99
2019-05-08T09:49:05.059Z,99.99
2019-05-08T09:50:05.098Z,99.99
2019-05-08T09:51:05.146Z,99.99
2019-05-08T09:52:05.199Z,99.99
2019-05-08T09:53:05.230Z,99.99
2019-05-08T09:54:05.263Z,99.99
2019-05-08T09:55:05.307Z,99.99
2019-05-08T09:56:05.369Z,99.99
2019-05-08T09:57:05.403Z,99.99
2019-05-08T09:58:05.455Z,99.99
2019-05-08T09:59:05.493Z,99.99
2019-05-08T10:00:05.532Z,99.99
2019-05-08T10:01:05.625Z,99.99
2019-05-08T10:02:05.675Z,99.99
2019-05-08T10:03:05.662Z,99.99
2019-05-08T10:04:05.730Z,99.99
2019-05-08T10:05:05.747Z,99.99
2019-05-08T10:06:05.787Z,99.99
2019-05-08T10:07:05.832Z,99.99
2019-05-08T10:08:05.897Z,99.99
2019-05-08T10:09:05.927Z,99.99
2019-05-08T10:10:05.956Z,99.99
2019-05-08T10:11:06.018Z,99.99
2019-05-08T10:12:06.054Z,99.99
2019-05-08T10:13:06.100Z,99.99
2019-05-08T10:14:06.146Z,99.99
2019-05-08T10:15:06.206Z,99.99
2019-05-08T10:16:06.270Z,99.99
2019-05-08T10:17:06.272Z,99.99
2019-05-08T10:18:06.313Z,99.99
2019-05-08T10:19:06.366Z,99.99
2019-05-08T10:20:06.398Z,99.99
2019-05-08T10:21:11.343Z,99.99
2019-05-08T10:22:06.479Z,99.99
2019-05-08T10:23:06.530Z,99.99
2019-05-08T10:24:06.582Z,99.99
2019-05-08T10:25:07.115Z,99.99
2019-05-08T10:26:06.679Z,99.99
2019-05-08T10:27:06.702Z,99.99
2019-05-08T10:28:06.792Z,99.99
2019-05-08T10:29:06.832Z,99.99
2019-05-08T10:30:09.770Z,99.99
2019-05-08T10:31:09.266Z,99.99
2019-05-08T10:32:06.932Z,99.99
2019-05-08T10:33:10.040Z,99.99
2019-05-08T10:34:09.474Z,99.99
2019-05-08T10:35:07.068Z,99.99
2019-05-08T10:36:10.079Z,99.99
2019-05-08T10:37:07.155Z,99.99
2019-05-08T10:38:07.197Z,99.99
2019-05-08T10:39:09.610Z,99.99
2019-05-08T10:40:07.275Z,99.99
2019-05-08T10:41:10.004Z,99.99
2019-05-08T10:42:07.376Z,99.99
2019-05-08T10:43:09.729Z,99.99
2019-05-08T10:44:09.422Z,99.99
2019-05-08T10:45:09.119Z,99.99
2019-05-08T10:46:09.847Z,99.99
2019-05-08T10:47:10.318Z,99.99
2019-05-08T10:48:10.016Z,99.99
2019-05-08T10:49:09.283Z,99.99
2019-05-08T10:50:07.707Z,99.99
2019-05-08T10:51:09.955Z,99.99
2019-05-08T10:52:10.058Z,99.99
2019-05-08T10:53:10.281Z,99.99
2019-05-08T10:54:09.667Z,99.99
2019-05-08T10:55:10.996Z,99.99
2019-05-08T10:56:09.541Z,99.99
2019-05-08T10:57:10.709Z,99.99
2019-05-08T10:58:09.522Z,99.99
2019-05-08T10:59:09.617Z,99.99
2019-05-08T11:00:21.219Z,99.99
2019-05-08T11:01:09.213Z,99.99
2019-05-08T11:02:10.563Z,99.99
2019-05-08T11:03:18.654Z,99.99
2019-05-08T11:04:09.727Z,99.99
2019-05-08T11:05:10.141Z,99.99
2019-05-08T11:06:09.834Z,99.99
2019-05-08T11:07:11.017Z,99.99
2019-05-08T11:08:19.856Z,99.99
2019-05-08T11:09:10.148Z,99.99
2019-05-08T11:10:09.917Z,99.99
2019-05-08T11:11:09.964Z,99.99
2019-05-08T11:12:10.264Z,99.99
2019-05-08T11:13:09.781Z,99.99
2019-05-08T11:14:09.574Z,99.99
2019-05-08T11:15:09.410Z,99.99
2019-05-08T11:16:09.469Z,99.99
2019-05-08T11:17:09.598Z,99.99
2019-05-08T11:18:09.616Z,99.99
2019-05-08T11:19:09.887Z,99.99
2019-05-08T11:20:10.393Z,99.99
2019-05-08T11:21:10.273Z,99.99
2019-05-08T11:22:09.902Z,99.99
2019-05-08T11:23:09.379Z,99.99
2019-05-08T11:24:09.933Z,99.99
2019-05-08T11:25:10.272Z,99.99
2019-05-08T11:26:09.476Z,99.99
2019-05-08T11:27:10.432Z,99.99
2019-05-08T11:28:09.657Z,99.99
2019-05-08T11:29:10.426Z,99.99
2019-05-08T11:30:11.393Z,99.99
2019-05-08T11:31:09.861Z,99.99
2019-05-08T11:32:10.412Z,99.99
2019-05-08T11:33:10.296Z,99.99
2019-05-08T11:34:11.797Z,99.99
2019-05-08T11:35:09.853Z,99.99
2019-05-08T11:36:10.137Z,99.99
2019-05-08T11:37:10.315Z,99.99
2019-05-08T11:38:09.989Z,99.99
2019-05-08T11:39:10.226Z,99.99
2019-05-08T11:40:09.984Z,99.99
2019-05-08T11:41:10.367Z,99.99
2019-05-08T11:42:10.114Z,99.99
2019-05-08T11:43:10.110Z,99.99
2019-05-08T11:44:10.185Z,99.99
2019-05-08T11:45:10.215Z,99.99
2019-05-08T11:46:10.265Z,99.99
2019-05-08T11:47:10.312Z,99.99
2019-05-08T11:48:11.250Z,99.99
2019-05-08T11:49:10.390Z,99.99
2019-05-08T11:50:10.636Z,99.99
2019-05-08T11:51:10.494Z,99.99
2019-05-08T11:52:11.035Z,99.99
2019-05-08T11:53:11.219Z,99.99
2019-05-08T11:54:10.632Z,99.99
2019-05-08T11:55:10.708Z,99.99
2019-05-08T11:56:10.704Z,99.99
2019-05-08T11:57:10.770Z,99.99
2019-05-08T11:58:12.951Z,99.99
2019-05-08T11:59:10.833Z,99.99
2019-05-08T12:00:10.910Z,99.99
2019-05-08T12:01:22.841Z,99.99
2019-05-08T12:02:11.006Z,99.99
2019-05-08T12:03:11.033Z,99.99
2019-05-08T12:04:11.083Z,99.99
2019-05-08T12:05:11.132Z,99.99
2019-05-08T12:06:11.162Z,99.99
2019-05-08T12:07:11.229Z,99.99
2019-05-08T12:08:11.261Z,99.99
2019-05-08T12:09:11.810Z,99.99
2019-05-08T12:10:11.372Z,99.99
2019-05-08T12:11:11.436Z,99.99
2019-05-08T12:12:11.444Z,99.99
2019-05-08T12:13:11.497Z,99.99
2019-05-08T12:14:11.542Z,99.99
2019-05-08T12:15:11.586Z,99.99
2019-05-08T12:16:11.660Z,99.99
2019-05-08T12:17:25.407Z,99.99
2019-05-08T12:18:11.725Z,99.99
2019-05-08T12:19:11.785Z,99.99
2019-05-08T12:20:11.841Z,99.99
2019-05-08T12:21:11.923Z,99.99
2019-05-08T12:22:11.910Z,99.99
2019-05-08T12:23:11.945Z,99.99
2019-05-08T12:24:12.048Z,99.99
2019-05-08T12:25:12.074Z,99.99
2019-05-08T12:26:12.125Z,99.99
2019-05-08T12:27:12.140Z,99.99
2019-05-08T12:28:12.208Z,99.99
2019-05-08T12:29:12.231Z,99.99
2019-05-08T12:30:12.298Z,99.99
2019-05-08T12:31:12.325Z,99.99
2019-05-08T12:32:12.401Z,99.99
2019-05-08T12:33:12.418Z,99.99
2019-05-08T12:34:13.375Z,99.99
2019-05-08T12:35:12.526Z,99.99
2019-05-08T12:36:12.574Z,99.99
2019-05-08T12:37:12.673Z,99.99
2019-05-08T12:38:12.663Z,99.99
2019-05-08T12:39:12.739Z,99.99
2019-05-08T12:40:12.816Z,99.99
2019-05-08T12:41:12.815Z,99.99
2019-05-08T12:42:12.868Z,99.99
2019-05-08T12:43:12.908Z,99.99
2019-05-08T12:44:12.963Z,99.99
2019-05-08T12:45:13.006Z,99.99
2019-05-08T12:46:13.062Z,99.99
2019-05-08T12:47:13.090Z,99.99
2019-05-08T12:48:13.153Z,99.99
2019-05-08T12:49:13.189Z,99.99
2019-05-08T12:50:13.261Z,99.99
2019-05-08T12:51:13.279Z,99.99
2019-05-08T12:52:13.390Z,99.99
2019-05-08T12:53:13.378Z,99.99